createdAt,value
2018-07-17T00:00:01.032Z,9.0
2018-07-17T00:05:00.938Z,8.9
2018-07-17T00:10:01.002Z,9.4
2018-07-17T00:15:00.911Z,9.1
2018-07-17T00:20:01.072Z,9.1
2018-07-17T00:25:00.947Z,8.8
2018-07-17T00:30:01.044Z,8.8
2018-07-17T00:35:00.980Z,8.4
2018-07-17T00:40:00.985Z,8.3
2018-07-17T00:45:02.006Z,8.5
2018-07-17T00:50:01.064Z,8.6
2018-07-17T01:00:01.021Z,8.5
2018-07-17T01:05:00.923Z,8.4
2018-07-17T01:10:01.121Z,8.4
2018-07-17T01:15:00.920Z,8.3
2018-07-17T01:25:01.130Z,8.3
2018-07-17T01:30:01.092Z,8.6
2018-07-17T01:35:00.990Z,8.6
2018-07-17T01:40:01.014Z,8.5
2018-07-17T01:45:00.993Z,8.7
2018-07-17T01:50:00.982Z,8.4
2018-07-17T01:55:00.988Z,8.4
2018-07-17T02:00:01.030Z,8.6
2018-07-17T02:05:01.037Z,8.3
2018-07-17T02:10:01.147Z,8.5
2018-07-17T02:15:01.021Z,9.2
2018-07-17T02:20:00.984Z,9.4
2018-07-17T02:25:01.016Z,9.2
2018-07-17T02:30:01.097Z,9.4
2018-07-17T02:35:01.006Z,9.6
2018-07-17T02:40:01.103Z,9.3
2018-07-17T02:45:00.981Z,9.6
2018-07-17T02:50:01.021Z,9.8
2018-07-17T02:55:01.021Z,10.0
2018-07-17T03:00:01.018Z,9.8
2018-07-17T03:05:01.017Z,10.0
2018-07-17T03:10:01.120Z,9.5
2018-07-17T03:15:00.980Z,8.9
2018-07-17T03:20:01.141Z,8.7
2018-07-17T03:25:01.013Z,8.7
2018-07-17T03:30:01.160Z,8.8
2018-07-17T03:35:01.019Z,9.1
2018-07-17T03:40:01.098Z,9.5
2018-07-17T03:45:01.020Z,9.7
2018-07-17T03:55:01.003Z,9.2
2018-07-17T04:00:01.055Z,9.1
2018-07-17T04:05:00.991Z,9.0
2018-07-17T04:10:01.103Z,9.1
2018-07-17T04:15:01.006Z,9.6
2018-07-17T04:20:01.072Z,10.1
2018-07-17T04:25:01.007Z,10.4
2018-07-17T04:30:01.006Z,10.7
2018-07-17T04:35:01.110Z,10.7
2018-07-17T04:40:01.118Z,11.0
2018-07-17T04:45:01.028Z,10.5
2018-07-17T04:50:01.107Z,10.1
2018-07-17T04:55:01.002Z,10.0
2018-07-17T05:00:01.176Z,10.0
2018-07-17T05:05:01.033Z,9.8
2018-07-17T05:10:01.155Z,9.6
2018-07-17T05:15:00.983Z,9.4
2018-07-17T05:20:01.213Z,9.5
2018-07-17T05:25:00.983Z,9.2
2018-07-17T05:30:01.051Z,9.0
2018-07-17T05:35:01.229Z,9.2
2018-07-17T05:40:01.152Z,9.7
2018-07-17T05:45:00.961Z,9.9
2018-07-17T05:50:01.157Z,10.4
2018-07-17T05:55:00.991Z,10.8
2018-07-17T06:00:01.099Z,11.2
2018-07-17T06:05:01.025Z,11.0
2018-07-17T06:10:01.183Z,10.9
2018-07-17T06:15:01.004Z,10.7
2018-07-17T06:20:01.423Z,10.4
2018-07-17T06:25:01.208Z,9.8
2018-07-17T06:30:01.099Z,9.6
2018-07-17T06:35:01.003Z,9.6
2018-07-17T06:40:01.100Z,9.3
2018-07-17T06:45:01.104Z,9.0
2018-07-17T06:50:06.211Z,8.8
2018-07-17T06:55:01.041Z,8.2
2018-07-17T07:00:01.110Z,7.7
2018-07-17T07:05:01.108Z,7.4
2018-07-17T07:10:01.048Z,6.7
2018-07-17T07:15:01.026Z,6.0
2018-07-17T07:20:01.044Z,5.5
2018-07-17T07:25:01.050Z,5.0
2018-07-17T07:30:01.178Z,4.4
2018-07-17T07:35:01.018Z,4.0
2018-07-17T07:40:01.120Z,3.6
2018-07-17T07:45:01.024Z,3.6
2018-07-17T07:50:01.115Z,3.3
2018-07-17T07:55:01.050Z,3.2
2018-07-17T08:00:01.196Z,3.6
2018-07-17T08:05:01.062Z,3.8
2018-07-17T08:10:01.119Z,3.6
2018-07-17T08:15:01.066Z,4.1
2018-07-17T08:20:01.319Z,4.3
2018-07-17T08:25:01.062Z,4.3
2018-07-17T08:30:01.194Z,4.9
2018-07-17T08:35:00.996Z,5.3
2018-07-17T08:40:01.127Z,5.3
2018-07-17T08:45:01.125Z,5.5
2018-07-17T08:50:01.098Z,5.5
2018-07-17T09:00:01.063Z,5.0
2018-07-17T09:05:01.263Z,5.2
2018-07-17T09:10:01.304Z,5.0
2018-07-17T09:15:01.042Z,5.0
2018-07-17T09:20:01.143Z,5.7
2018-07-17T09:25:01.085Z,5.6
2018-07-17T09:30:01.141Z,5.9
2018-07-17T09:35:01.024Z,6.1
2018-07-17T09:40:01.212Z,6.3
2018-07-17T09:45:01.090Z,6.0
2018-07-17T09:50:01.154Z,6.4
2018-07-17T10:00:01.160Z,6.6
2018-07-17T10:05:01.121Z,6.7
2018-07-17T10:10:01.223Z,6.7
2018-07-17T10:15:01.113Z,6.6
2018-07-17T10:20:01.475Z,6.1
2018-07-17T10:25:01.109Z,6.2
2018-07-17T10:30:01.265Z,6.3
2018-07-17T10:35:01.456Z,6.5
2018-07-17T10:40:01.144Z,6.5
2018-07-17T10:45:01.162Z,6.6
2018-07-17T10:50:01.208Z,6.5
2018-07-17T10:55:01.153Z,6.3
2018-07-17T11:00:01.281Z,5.9
2018-07-17T11:05:01.160Z,6.0
2018-07-17T11:10:01.211Z,6.1
2018-07-17T11:15:01.139Z,6.2
2018-07-17T11:20:01.420Z,6.5
2018-07-17T11:25:01.141Z,6.9
2018-07-17T11:30:01.207Z,6.8
2018-07-17T11:35:01.211Z,6.8
2018-07-17T11:40:01.283Z,6.6
2018-07-17T11:45:01.118Z,6.6
2018-07-17T11:50:01.263Z,6.7
2018-07-17T11:55:01.268Z,6.8
2018-07-17T12:00:01.451Z,6.9
2018-07-17T12:05:01.132Z,7.4
2018-07-17T12:10:01.192Z,7.2
2018-07-17T12:15:01.109Z,7.3
2018-07-17T12:20:01.785Z,7.7
2018-07-17T12:30:01.180Z,7.6
2018-07-17T12:35:01.697Z,8.1
2018-07-17T12:40:01.212Z,8.1
2018-07-17T12:45:01.148Z,7.5
2018-07-17T12:50:01.918Z,7.3
2018-07-17T12:55:01.214Z,7.0
2018-07-17T13:00:01.215Z,7.0
2018-07-17T13:05:01.123Z,7.1
2018-07-17T13:10:01.218Z,7.4
2018-07-17T13:15:01.152Z,7.8
2018-07-17T13:20:01.237Z,8.0
2018-07-17T13:30:02.272Z,7.6
2018-07-17T13:35:01.175Z,7.4
2018-07-17T13:40:01.247Z,7.2
2018-07-17T13:45:01.173Z,6.9
2018-07-17T13:50:01.395Z,6.6
2018-07-17T13:55:01.185Z,6.9
2018-07-17T14:00:01.691Z,6.9
2018-07-17T14:05:02.165Z,7.2
2018-07-17T14:10:01.174Z,7.6
2018-07-17T14:15:01.118Z,7.5
2018-07-17T14:20:01.238Z,7.3
2018-07-17T14:25:01.106Z,7.0
2018-07-17T14:30:01.247Z,6.7
2018-07-17T14:35:01.146Z,6.3
2018-07-17T14:40:01.174Z,6.2
2018-07-17T14:45:01.179Z,6.1
2018-07-17T14:50:01.194Z,6.1
2018-07-17T14:55:01.158Z,6.3
2018-07-17T15:00:01.418Z,6.4
2018-07-17T15:05:01.186Z,6.0
2018-07-17T15:10:01.726Z,5.9
2018-07-17T15:15:01.131Z,6.3
2018-07-17T15:20:01.255Z,5.6
2018-07-17T15:25:01.193Z,5.7
2018-07-17T15:30:01.257Z,6.0
2018-07-17T15:40:01.268Z,6.2
2018-07-17T15:45:01.177Z,6.9
2018-07-17T15:50:01.293Z,6.8
2018-07-17T15:55:01.211Z,6.6
2018-07-17T16:00:01.460Z,6.4
2018-07-17T16:05:01.175Z,6.2
2018-07-17T16:10:01.564Z,5.8
2018-07-17T16:15:01.216Z,5.7
2018-07-17T16:20:01.282Z,5.6
2018-07-17T16:25:01.216Z,5.8
2018-07-17T16:30:01.278Z,5.8
2018-07-17T16:35:01.220Z,6.0
2018-07-17T16:40:01.342Z,5.9
2018-07-17T16:45:01.219Z,7.0
2018-07-17T16:50:01.288Z,7.0
2018-07-17T16:55:01.220Z,7.3
2018-07-17T17:00:01.287Z,7.3
2018-07-17T17:05:01.232Z,7.2
2018-07-17T17:10:01.349Z,6.2
2018-07-17T17:15:01.277Z,6.0
2018-07-17T17:20:01.362Z,5.7
2018-07-17T17:25:02.258Z,5.6
2018-07-17T17:30:01.299Z,5.7
2018-07-17T17:35:01.207Z,5.7
2018-07-17T17:40:01.367Z,5.5
2018-07-17T17:45:01.274Z,5.7
2018-07-17T17:55:01.407Z,5.7
2018-07-17T18:00:01.347Z,6.1
2018-07-17T18:05:01.266Z,6.7
2018-07-17T18:10:01.410Z,6.8
2018-07-17T18:15:01.278Z,7.0
2018-07-17T18:20:01.331Z,7.2
2018-07-17T18:25:01.260Z,7.2
2018-07-17T18:30:01.333Z,6.8
2018-07-17T18:35:01.213Z,6.8
2018-07-17T18:40:01.417Z,6.6
2018-07-17T18:45:01.259Z,6.7
2018-07-17T18:50:13.563Z,6.9
2018-07-17T18:55:01.440Z,7.2
2018-07-17T19:00:01.356Z,7.2
2018-07-17T19:05:01.301Z,7.5
2018-07-17T19:10:01.428Z,7.5
2018-07-17T19:15:01.384Z,7.5
2018-07-17T19:20:01.264Z,7.6
2018-07-17T19:25:01.243Z,8.0
2018-07-17T19:30:01.639Z,7.8
2018-07-17T19:35:01.242Z,7.8
2018-07-17T19:40:01.339Z,7.8
2018-07-17T19:45:01.345Z,7.8
2018-07-17T19:50:01.344Z,7.7
2018-07-17T19:55:01.342Z,8.2
2018-07-17T20:00:06.380Z,8.4
2018-07-17T20:05:01.305Z,8.4
2018-07-17T20:10:01.349Z,8.4
2018-07-17T20:15:01.286Z,8.4
2018-07-17T20:20:01.354Z,8.5
2018-07-17T20:25:01.291Z,9.7
2018-07-17T20:30:01.375Z,11.3
2018-07-17T20:35:01.295Z,13.5
2018-07-17T20:40:01.291Z,16.0
2018-07-17T20:45:01.293Z,18.4
2018-07-17T20:50:01.362Z,20.0
2018-07-17T20:55:01.359Z,21.2
2018-07-17T21:00:01.424Z,22.2
2018-07-17T21:05:01.604Z,22.8
2018-07-17T21:10:01.363Z,23.3
2018-07-17T21:15:01.300Z,23.8
2018-07-17T21:20:01.370Z,24.6
2018-07-17T21:25:01.300Z,25.3
2018-07-17T21:30:01.265Z,26.2
2018-07-17T21:40:01.432Z,26.8
2018-07-17T21:45:01.310Z,27.0
2018-07-17T21:50:01.315Z,27.2
2018-07-17T21:55:01.315Z,27.4
2018-07-17T22:00:01.313Z,28.4
2018-07-17T22:05:01.308Z,28.1
2018-07-17T22:10:01.442Z,28.1
2018-07-17T22:15:01.321Z,27.9
2018-07-17T22:20:01.381Z,27.6
2018-07-17T22:25:01.316Z,26.5
2018-07-17T22:30:01.320Z,26.3
2018-07-17T22:35:01.326Z,25.9
2018-07-17T22:40:01.349Z,25.4
2018-07-17T22:45:01.357Z,25.0
2018-07-17T22:50:01.436Z,25.4
2018-07-17T22:55:01.333Z,25.4
2018-07-17T23:00:01.364Z,25.4
2018-07-17T23:05:01.331Z,25.4
2018-07-17T23:10:01.392Z,25.9
2018-07-17T23:15:01.327Z,25.5
2018-07-17T23:20:01.301Z,25.5
2018-07-17T23:25:01.304Z,24.8
2018-07-17T23:30:01.406Z,24.5
2018-07-17T23:35:01.336Z,23.6
2018-07-17T23:40:01.401Z,23.0
2018-07-17T23:45:01.494Z,22.5
2018-07-17T23:50:01.355Z,22.9
2018-07-17T23:55:01.348Z,22.6
